createdAt,value
2023-03-12T00:01:19.232Z,1.70
2023-03-12T00:05:22.395Z,1.60
2023-03-12T00:09:23.993Z,1.70
2023-03-12T00:13:25.564Z,1.80
2023-03-12T00:17:28.400Z,1.80
2023-03-12T00:21:30.002Z,1.90
2023-03-12T00:25:31.711Z,2.00
2023-03-12T00:29:33.312Z,2.00
2023-03-12T00:33:34.904Z,2.10
2023-03-12T00:37:38.727Z,2.00
2023-03-12T00:41:40.330Z,2.00
2023-03-12T00:45:41.890Z,2.00
2023-03-12T00:49:43.544Z,2.00
2023-03-12T00:53:45.428Z,2.00
2023-03-12T00:57:47.005Z,2.10
2023-03-12T01:01:48.705Z,2.10
2023-03-12T01:05:54.553Z,2.10
2023-03-12T01:09:56.138Z,2.10
2023-03-12T01:13:57.710Z,2.10
2023-03-12T01:17:59.295Z,2.10
2023-03-12T01:22:01.007Z,2.10
2023-03-12T01:26:02.586Z,2.20
2023-03-12T01:30:05.050Z,2.20
2023-03-12T01:34:06.658Z,2.30
2023-03-12T01:38:09.260Z,2.30
2023-03-12T01:42:10.860Z,2.40
2023-03-12T01:46:24.800Z,2.50
2023-03-12T01:50:26.369Z,2.60
2023-03-12T01:54:37.083Z,2.70
2023-03-12T01:58:40.302Z,2.80
2023-03-12T02:02:43.354Z,2.80
2023-03-12T02:07:14.462Z,2.90
2023-03-12T02:11:16.108Z,3.00
2023-03-12T02:15:17.972Z,3.10
2023-03-12T02:19:24.184Z,3.20
2023-03-12T02:23:31.811Z,3.10
2023-03-12T02:27:34.516Z,3.10
2023-03-12T02:31:42.947Z,3.10
2023-03-12T02:35:45.690Z,3.10
2023-03-12T02:39:51.452Z,3.10
2023-03-12T02:44:02.347Z,3.00
2023-03-12T02:48:04.283Z,3.00
2023-03-12T02:52:06.053Z,3.00
2023-03-12T02:56:07.808Z,3.00
2023-03-12T03:00:12.274Z,3.00
2023-03-12T03:04:13.938Z,2.90
2023-03-12T03:08:15.605Z,3.00
2023-03-12T03:12:17.171Z,2.90
2023-03-12T03:16:20.041Z,2.90
2023-03-12T03:20:24.236Z,2.90
2023-03-12T03:24:26.042Z,2.90
2023-03-12T03:28:28.464Z,2.90
2023-03-12T03:32:30.093Z,2.90
2023-03-12T03:36:31.989Z,2.90
2023-03-12T03:40:33.702Z,2.90
2023-03-12T03:44:35.629Z,2.90
2023-03-12T03:48:37.187Z,2.80
2023-03-12T03:52:39.009Z,2.80
2023-03-12T03:56:41.304Z,2.80
2023-03-12T04:00:44.422Z,2.80
2023-03-12T04:04:46.124Z,2.80
2023-03-12T04:08:47.711Z,2.80
2023-03-12T04:12:49.296Z,2.70
2023-03-12T04:16:50.863Z,2.70
2023-03-12T04:20:52.461Z,2.70
2023-03-12T04:29:23.352Z,2.70
2023-03-12T04:33:25.606Z,2.70
2023-03-12T04:37:42.710Z,2.70
2023-03-12T04:41:44.346Z,2.70
2023-03-12T04:45:46.054Z,2.70
2023-03-12T04:49:50.029Z,2.70
2023-03-12T04:53:54.528Z,2.70
2023-03-12T04:57:57.438Z,2.80
2023-03-12T05:02:07.779Z,2.80
2023-03-12T05:06:12.385Z,2.80
2023-03-12T05:10:13.951Z,2.80
2023-03-12T05:14:15.573Z,2.80
2023-03-12T05:18:17.633Z,2.80
2023-03-12T05:22:19.435Z,2.80
2023-03-12T05:26:22.502Z,2.90
2023-03-12T05:30:24.153Z,2.80
2023-03-12T05:34:25.765Z,2.70
2023-03-12T05:38:29.235Z,2.60
2023-03-12T05:42:30.885Z,2.60
2023-03-12T05:46:32.514Z,2.60
2023-03-12T05:50:34.065Z,2.60
2023-03-12T05:54:35.748Z,2.60
2023-03-12T05:58:38.327Z,2.50
2023-03-12T06:02:40.062Z,2.50
2023-03-12T06:06:41.782Z,2.60
2023-03-12T06:10:43.348Z,2.60
2023-03-12T06:14:44.940Z,2.70
2023-03-12T06:18:46.616Z,2.70
2023-03-12T06:22:48.272Z,2.80
2023-03-12T06:26:49.883Z,2.90
2023-03-12T06:30:53.132Z,2.90
2023-03-12T06:34:54.758Z,3.00
2023-03-12T06:38:57.302Z,3.10
2023-03-12T06:43:02.159Z,3.30
2023-03-12T06:47:03.800Z,3.40
2023-03-12T06:51:05.921Z,3.40
2023-03-12T06:55:07.696Z,3.50
2023-03-12T06:59:09.296Z,3.50
2023-03-12T07:03:11.072Z,3.60
2023-03-12T07:07:12.697Z,3.70
2023-03-12T07:11:14.358Z,3.70
2023-03-12T07:15:16.076Z,3.70
2023-03-12T07:19:19.390Z,3.70
2023-03-12T07:23:21.596Z,3.70
2023-03-12T07:27:23.631Z,3.80
2023-03-12T07:31:25.269Z,3.90
2023-03-12T07:35:27.247Z,3.80
2023-03-12T07:39:29.012Z,4.00
2023-03-12T07:43:30.718Z,4.20
2023-03-12T07:47:34.800Z,4.30
2023-03-12T07:51:36.424Z,4.50
2023-03-12T07:55:38.208Z,4.50
2023-03-12T07:59:40.041Z,4.60
2023-03-12T08:03:41.912Z,4.70
2023-03-12T08:07:44.234Z,4.60
2023-03-12T08:11:45.930Z,4.90
2023-03-12T08:15:48.814Z,5.20
2023-03-12T08:19:51.139Z,5.30
2023-03-12T08:23:52.863Z,5.30
2023-03-12T08:27:54.460Z,5.60
2023-03-12T08:32:04.618Z,5.60
2023-03-12T08:36:07.379Z,5.90
2023-03-12T08:40:13.050Z,6.00
2023-03-12T08:44:16.725Z,6.10
2023-03-12T08:48:18.315Z,6.30
2023-03-12T08:52:19.934Z,6.60
2023-03-12T08:56:24.514Z,7.00
2023-03-12T09:00:26.101Z,7.10
2023-03-12T09:04:27.807Z,7.50
2023-03-12T09:08:29.521Z,7.70
2023-03-12T09:12:31.351Z,8.00
2023-03-12T09:16:32.988Z,8.10
2023-03-12T09:20:34.575Z,8.30
2023-03-12T09:24:36.176Z,8.60
2023-03-12T09:28:37.810Z,8.60
2023-03-12T09:32:39.447Z,8.70
2023-03-12T09:36:41.097Z,8.90
2023-03-12T09:40:46.155Z,8.90
2023-03-12T09:44:48.341Z,9.10
2023-03-12T09:48:50.331Z,9.00
2023-03-12T09:53:01.002Z,9.50
2023-03-12T09:57:03.986Z,9.40
2023-03-12T10:01:11.828Z,9.30
2023-03-12T10:05:36.654Z,9.60
2023-03-12T10:09:53.547Z,9.70
2023-03-12T10:14:01.261Z,9.20
2023-03-12T10:18:10.227Z,9.20
2023-03-12T10:22:11.851Z,9.40
2023-03-12T10:26:22.460Z,9.80
2023-03-12T10:30:27.172Z,9.70
2023-03-12T10:34:32.194Z,9.90
2023-03-12T10:38:34.132Z,9.90
2023-03-12T10:42:35.686Z,9.50
2023-03-12T10:46:38.057Z,9.40
2023-03-12T10:50:40.541Z,9.70
2023-03-12T10:54:44.701Z,9.70
2023-03-12T10:58:47.583Z,9.80
2023-03-12T11:03:15.641Z,10.00
2023-03-12T11:07:27.676Z,10.10
2023-03-12T11:11:34.283Z,9.90
2023-03-12T11:15:35.843Z,10.20
2023-03-12T11:19:37.576Z,10.20
2023-03-12T11:23:44.488Z,10.20
2023-03-12T11:27:47.819Z,10.10
2023-03-12T11:31:55.221Z,10.30
2023-03-12T11:36:04.987Z,10.30
2023-03-12T11:40:18.762Z,10.30
2023-03-12T11:44:31.415Z,10.30
2023-03-12T11:48:51.416Z,10.50
2023-03-12T11:52:59.762Z,10.30
2023-03-12T11:57:07.402Z,10.30
2023-03-12T12:01:15.127Z,10.40
2023-03-12T12:05:27.443Z,10.40
2023-03-12T12:09:40.374Z,10.40
2023-03-12T12:13:50.789Z,10.40
2023-03-12T12:18:11.420Z,10.40
2023-03-12T12:22:16.111Z,10.50
2023-03-12T12:26:31.186Z,10.60
2023-03-12T12:30:51.090Z,10.60
2023-03-12T12:34:53.386Z,10.80
2023-03-12T12:39:15.217Z,10.80
2023-03-12T12:43:16.737Z,11.30
2023-03-12T12:47:37.280Z,11.40
2023-03-12T12:51:44.310Z,11.30
2023-03-12T12:55:50.303Z,11.40
2023-03-12T12:59:52.251Z,11.20
2023-03-12T13:03:57.933Z,11.30
2023-03-12T13:07:59.486Z,11.20
2023-03-12T13:12:07.134Z,11.30
2023-03-12T13:16:28.771Z,11.30
2023-03-12T13:20:33.900Z,11.30
2023-03-12T13:25:00.771Z,11.40
2023-03-12T13:29:14.096Z,11.30
2023-03-12T13:33:16.966Z,11.40
2023-03-12T13:37:21.913Z,11.50
2023-03-12T13:41:31.938Z,11.40
2023-03-12T13:45:35.487Z,11.30
2023-03-12T13:49:41.573Z,11.00
2023-03-12T13:53:47.072Z,11.10
2023-03-12T13:58:06.476Z,11.10
2023-03-12T14:02:15.077Z,11.10
2023-03-12T14:06:18.540Z,10.90
2023-03-12T14:10:29.891Z,10.90
2023-03-12T14:14:36.833Z,11.00
2023-03-12T14:18:39.619Z,11.00
2023-03-12T14:22:42.988Z,11.30
2023-03-12T14:26:45.493Z,11.30
2023-03-12T14:30:56.955Z,11.30
2023-03-12T14:35:18.156Z,11.30
2023-03-12T14:39:32.168Z,11.20
2023-03-12T14:43:34.842Z,11.20
2023-03-12T14:51:58.914Z,11.00
2023-03-12T14:56:00.692Z,11.00
2023-03-12T15:00:02.333Z,11.00
2023-03-12T15:04:06.283Z,11.20
2023-03-12T15:08:12.431Z,11.20
2023-03-12T15:12:19.778Z,11.20
2023-03-12T15:16:36.357Z,11.30
2023-03-12T15:20:38.220Z,11.30
2023-03-12T15:24:40.747Z,11.30
2023-03-12T15:28:43.076Z,11.20
2023-03-12T15:33:03.321Z,11.20
2023-03-12T15:37:43.553Z,11.20
2023-03-12T15:41:49.059Z,11.20
2023-03-12T15:45:59.923Z,11.20
2023-03-12T15:50:03.437Z,11.10
2023-03-12T15:54:20.148Z,11.10
2023-03-12T15:58:26.655Z,11.10
2023-03-12T16:02:39.427Z,11.00
2023-03-12T16:06:45.975Z,11.10
2023-03-12T16:10:48.163Z,11.00
2023-03-12T16:14:49.832Z,11.00
2023-03-12T16:18:51.609Z,11.00
2023-03-12T16:22:53.278Z,11.00
2023-03-12T16:26:57.368Z,11.00
2023-03-12T16:30:59.286Z,11.00
2023-03-12T16:35:01.083Z,10.90
2023-03-12T16:39:02.682Z,10.90
2023-03-12T16:43:06.735Z,10.80
2023-03-12T16:47:11.692Z,10.80
2023-03-12T16:51:16.995Z,10.80
2023-03-12T16:55:22.492Z,10.80
2023-03-12T16:59:25.667Z,10.70
2023-03-12T17:03:33.776Z,10.70
2023-03-12T17:07:36.661Z,10.60
2023-03-12T17:11:38.920Z,10.50
2023-03-12T17:15:40.549Z,10.50
2023-03-12T17:19:42.182Z,10.50
2023-03-12T17:23:45.602Z,10.40
2023-03-12T17:27:47.218Z,10.20
2023-03-12T17:31:48.971Z,10.20
2023-03-12T17:36:01.043Z,10.20
2023-03-12T17:40:08.123Z,10.10
2023-03-12T17:44:11.196Z,10.10
2023-03-12T17:48:12.822Z,10.00
2023-03-12T17:52:14.494Z,10.10
2023-03-12T17:56:17.957Z,10.10
2023-03-12T18:00:21.856Z,9.90
2023-03-12T18:04:23.544Z,10.00
2023-03-12T18:08:25.231Z,9.90
2023-03-12T18:12:26.971Z,9.90
2023-03-12T18:16:28.987Z,9.80
2023-03-12T18:20:38.588Z,9.90
2023-03-12T18:24:41.361Z,9.90
2023-03-12T18:28:42.947Z,9.80
2023-03-12T18:32:44.623Z,9.90
2023-03-12T18:36:46.597Z,9.90
2023-03-12T18:40:49.846Z,9.80
2023-03-12T18:44:51.773Z,9.80
2023-03-12T18:48:53.529Z,9.80
2023-03-12T18:52:55.225Z,9.80
2023-03-12T18:56:56.916Z,9.80
2023-03-12T19:00:58.909Z,9.70
2023-03-12T19:05:02.105Z,9.70
2023-03-12T19:09:05.141Z,9.80
2023-03-12T19:13:06.962Z,9.70
2023-03-12T19:17:08.655Z,9.70
2023-03-12T19:21:10.262Z,9.70
2023-03-12T19:25:11.888Z,9.70
2023-03-12T19:29:15.165Z,9.70
2023-03-12T19:33:20.014Z,9.70
2023-03-12T19:37:22.514Z,9.70
2023-03-12T19:41:24.387Z,9.70
2023-03-12T19:45:26.135Z,9.80
2023-03-12T19:49:28.003Z,9.80
2023-03-12T19:53:30.086Z,9.80
2023-03-12T19:57:31.828Z,9.80
2023-03-12T20:01:33.772Z,9.80
2023-03-12T20:05:35.426Z,9.80
2023-03-12T20:09:37.067Z,9.80
2023-03-12T20:13:38.763Z,9.80
2023-03-12T20:17:40.368Z,9.90
2023-03-12T20:21:43.956Z,9.90
2023-03-12T20:25:47.902Z,9.90
2023-03-12T20:29:52.454Z,9.80
2023-03-12T20:33:54.133Z,9.80
2023-03-12T20:37:55.796Z,9.90
2023-03-12T20:41:57.437Z,9.90
2023-03-12T20:45:59.142Z,9.90
2023-03-12T20:50:00.824Z,9.90
2023-03-12T20:54:02.434Z,10.00
2023-03-12T20:58:04.075Z,9.90
2023-03-12T21:02:05.834Z,10.00
2023-03-12T21:06:07.588Z,9.90
2023-03-12T21:10:09.741Z,9.90
2023-03-12T21:14:11.318Z,9.90
2023-03-12T21:18:13.119Z,9.90
2023-03-12T21:22:15.036Z,9.80
2023-03-12T21:26:18.444Z,9.80
2023-03-12T21:30:20.310Z,9.90
2023-03-12T21:34:22.279Z,9.90
2023-03-12T21:38:23.981Z,9.90
2023-03-12T21:42:25.632Z,9.90
2023-03-12T21:46:30.983Z,9.90
2023-03-12T21:50:32.987Z,10.00
2023-03-12T21:54:35.096Z,10.00
2023-03-12T21:58:37.114Z,10.00
2023-03-12T22:02:39.579Z,10.00
2023-03-12T22:06:42.412Z,10.10
2023-03-12T22:10:45.205Z,10.00
2023-03-12T22:14:47.076Z,10.10
2023-03-12T22:18:48.664Z,10.10
2023-03-12T22:22:50.278Z,10.10
2023-03-12T22:26:51.907Z,10.10
2023-03-12T22:30:57.517Z,10.20
2023-03-12T22:34:59.156Z,10.20
2023-03-12T22:39:00.772Z,10.10
2023-03-12T22:43:02.402Z,10.10
2023-03-12T22:47:04.140Z,10.10
2023-03-12T22:51:06.130Z,10.10
2023-03-12T22:55:07.861Z,10.10
2023-03-12T22:59:09.411Z,10.10
2023-03-12T23:03:10.974Z,10.10
2023-03-12T23:07:15.551Z,10.10
2023-03-12T23:11:17.750Z,10.10
2023-03-12T23:15:21.097Z,10.20
2023-03-12T23:19:24.200Z,10.10
2023-03-12T23:23:26.117Z,10.20
2023-03-12T23:27:27.729Z,10.20
2023-03-12T23:31:29.580Z,10.30
2023-03-12T23:35:31.285Z,10.30
2023-03-12T23:39:42.086Z,10.30
2023-03-12T23:43:46.869Z,10.30
2023-03-12T23:47:48.466Z,10.30
2023-03-12T23:51:50.157Z,10.30
2023-03-12T23:55:58.556Z,10.30
